Terminal Aerodrome Forecast
Issued by NWS

Current Version | Previous Version | Graphics & Text | Print | Product List | Glossary Off
Versions: 1 2 3 4 5 6 7 8 9 10 11 12 13 14 15 16 17 18 19 20 21

000
FTUS41 KILN 272340
TAFLCK
TAF
KLCK 272340Z 2800/2824 10005KT P6SM VCSH BKN009 OVC017
     FM280900 28004KT 4SM BR VCSH OVC008
     FM281400 34009KT P6SM VCSH SCT015 OVC040
     FM282000 01012G20KT P6SM BKN040=

USA.gov is the U.S. government's official web portal to all federal, state and local government web resources and services.